Bookmark and Share
Track history (hours):
 

Toyomasa Maru

Last reported at 2014-Apr-23 06:32 UTC. Time now 2014-Apr-23 07:04 UTC.
Position N 34°32' E 135°05'.

Length 101 m; draft 4.4 m.

Type: Tanker. MMSI: 431300401.

NotesDate/timePositionNaut miles runAvg speedWind from/ knotsBaromVisibWave heightAir tempDewpointWater temp
2014-Apr-23 06:32N 34°32' E 135°05'7 7.1
2014-Apr-23 05:33N 34°39' E 135°08'0 0.0
2014-Apr-23 04:33N 34°39' E 135°08'0 0.0
2014-Apr-23 03:27N 34°39' E 135°08'0 0.0
2014-Apr-23 02:33N 34°39' E 135°08'0 0.0
2014-Apr-23 01:33N 34°39' E 135°08'0 0.0
2014-Apr-23 00:33N 34°39' E 135°08'0 0.4
2014-Apr-22 23:33N 34°38' E 135°08'1 0.7
2014-Apr-22 22:31N 34°37' E 135°08'0 0.1
2014-Apr-22 21:31N 34°38' E 135°08'1111.2
2014-Apr-22 20:32N 34°27' E 135°04'1313.0
2014-Apr-22 19:33N 34°15' E 134°59'1313.1
2014-Apr-22 18:33N 34°02' E 135°00'231 6.7
2014-Apr-21 08:20N 34°59' E 139°31'1012.9
2014-Apr-21 07:33N 35°05' E 139°41'1212.1
2014-Apr-21 06:33N 35°17' E 139°45'1111.1
2014-Apr-21 05:33N 35°28' E 139°46'3 2.6
2014-Apr-21 04:33N 35°30' E 139°45'0 0.0
2014-Apr-21 02:24N 35°30' E 139°45'0 0.0
2014-Apr-21 01:27N 35°30' E 139°45'0 0.0
2014-Apr-21 00:33N 35°30' E 139°45'3 2.6
2014-Apr-20 23:33N 35°29' E 139°42'6 5.1
2014-Apr-20 22:28N 35°24' E 139°45'0 0.1
2014-Apr-20 21:31N 35°24' E 139°45'9 9.6
2014-Apr-20 20:33N 35°15' E 139°47'1212.4
2014-Apr-20 19:33N 35°03' E 139°41'1312.8
2014-Apr-20 18:33N 34°55' E 139°29'12 0.4
2014-Apr-19 10:22N 34°48' E 139°17'1613.9
2014-Apr-19 09:13N 34°59' E 139°32'914.0
2014-Apr-19 08:33N 35°05' E 139°40'1212.3
2014-Apr-19 07:33N 35°17' E 139°45'1111.2
2014-Apr-19 06:33N 35°28' E 139°47'2 2.3
2014-Apr-19 05:29N 35°30' E 139°45'0 0.0
2014-Apr-19 04:32N 35°30' E 139°45'0 0.0
2014-Apr-19 03:14N 35°30' E 139°45'0 0.0
2014-Apr-19 02:26N 35°30' E 139°45'1 0.8
2014-Apr-19 01:34N 35°30' E 139°44'8 8.3
2014-Apr-19 00:33N 35°22' E 139°45'1110.5
2014-Apr-18 23:33N 35°11' E 139°47'1211.7
2014-Apr-18 22:33N 35°01' E 139°39'1312.3
2014-Apr-18 21:30N 34°53' E 139°27'  
2014-Apr-15 11:33N 35°00' E 139°33'1212.0
2014-Apr-15 10:33N 35°08' E 139°43'1110.9
2014-Apr-15 09:34N 35°19' E 139°43'1111.4
2014-Apr-15 08:34N 35°30' E 139°48'2 2.0
2014-Apr-15 07:33N 35°30' E 139°45'0 0.0
2014-Apr-15 06:33N 35°30' E 139°45'0 0.0
2014-Apr-15 05:33N 35°30' E 139°45'1 0.4
2014-Apr-15 03:34N 35°30' E 139°44'7 6.9
2014-Apr-15 02:34N 35°23' E 139°46'1111.3
2014-Apr-15 01:34N 35°12' E 139°47'1211.8
2014-Apr-15 00:33N 35°01' E 139°40'7 0.2
2014-Apr-13 13:33N 34°59' E 139°32'1413.7
2014-Apr-13 12:33N 35°09' E 139°44'1212.2
2014-Apr-13 11:33N 35°21' E 139°42'1313.0
2014-Apr-13 10:33N 35°30' E 139°53'9 7.1
2014-Apr-13 09:22N 35°32' E 140°03'0 0.0
2014-Apr-13 08:31N 35°32' E 140°03'0 0.0
2014-Apr-13 07:31N 35°32' E 140°03'  

Dump ship's entire track history

sailing weather and tide predictions

Toyomasa Maru — JJ3927 — position and weather